Time;durP1;ratioP1;P1;durP2;ratioP2;P2;SDS_P1;SDS_P2;PMS_P1;PMS_P2;Temp;Humidity;BMP_temperature;BMP_pressure;BME280_temperature;BME280_humidity;BME280_pressure;Samples;Min_cycle;Max_cycle;Signal;HPM_P1;HPM_P2
2023/10/04 00:04:55;;;;;;;9.05;1.40;;;17.50;95.50;;;;;;10477443;28;20045;-41
2023/10/04 00:09:57;;;;;;;8.93;1.85;;;18.50;96.00;;;;;;10482095;28;20136;-36
2023/10/04 00:15:00;;;;;;;6.35;1.85;;;18.00;94.00;;;;;;10479625;28;20080;-37
2023/10/04 00:20:08;;;;;;;12.80;2.00;;;17.80;97.30;;;;;;10480119;28;20045;-32
2023/10/04 00:25:12;;;;;;;4.65;1.63;;;17.60;96.50;;;;;;10480222;28;20048;-31
2023/10/04 00:30:17;;;;;;;8.02;1.75;;;17.30;94.20;;;;;;10480713;28;20063;-38
2023/10/04 00:35:19;;;;;;;16.08;2.55;;;17.70;94.80;;;;;;10480976;28;20044;-41
2023/10/04 00:40:23;;;;;;;11.93;2.60;;;17.40;98.20;;;;;;10469039;28;20040;-36
2023/10/04 00:45:28;;;;;;;11.45;2.10;;;17.30;97.20;;;;;;10489495;28;20127;-32
2023/10/04 00:50:31;;;;;;;9.10;2.50;;;16.80;95.50;;;;;;10474500;28;20045;-35
2023/10/04 00:55:35;;;;;;;7.30;1.52;;;17.20;97.90;;;;;;10487297;28;20060;-32
2023/10/04 01:00:39;;;;;;;10.50;1.88;;;17.20;94.40;;;;;;10487268;28;20056;-42
2023/10/04 01:05:46;;;;;;;5.40;1.65;;;17.10;96.00;;;;;;10470263;28;20213;-31
2023/10/04 01:10:49;;;;;;;8.18;1.42;;;17.80;98.40;;;;;;10466574;28;20122;-45
2023/10/04 01:15:55;;;;;;;11.20;2.08;;;17.60;99.40;;;;;;10474083;28;20056;-38
2023/10/04 01:20:56;;;;;;;3.72;1.33;;;18.70;89.60;;;;;;10478818;28;20040;-34
2023/10/04 01:26:00;;;;;;;10.57;2.80;;;17.60;98.20;;;;;;10480262;28;20080;-38
2023/10/04 01:31:02;;;;;;;12.43;2.47;;;18.50;95.30;;;;;;10472319;28;20087;-30
2023/10/04 01:36:05;;;;;;;5.68;1.55;;;18.40;90.20;;;;;;10471509;28;20053;-38
2023/10/04 01:41:08;;;;;;;10.52;2.10;;;17.50;91.80;;;;;;10478491;28;20056;-37
2023/10/04 01:46:10;;;;;;;13.73;2.22;;;17.40;96.60;;;;;;10473060;28;20132;-38
2023/10/04 01:51:12;;;;;;;5.17;1.93;;;17.70;93.90;;;;;;10469359;28;20122;-31
2023/10/04 01:56:16;;;;;;;;;;;17.20;99.90;;;;;;10479281;28;20064;-39
2023/10/04 02:01:18;;;;;;;4.70;1.50;;;17.80;95.80;;;;;;10465778;28;20472;-39
2023/10/04 02:06:19;;;;;;;8.38;1.52;;;17.80;99.80;;;;;;10469094;28;20477;-42
2023/10/04 02:11:24;;;;;;;9.33;1.70;;;18.30;96.80;;;;;;10468634;28;20075;-32
2023/10/04 02:16:27;;;;;;;15.80;2.08;;;18.40;92.30;;;;;;10466002;28;20270;-37
2023/10/04 02:21:29;;;;;;;6.78;1.77;;;17.00;98.00;;;;;;10468753;28;20068;-37
2023/10/04 02:26:35;;;;;;;9.10;2.93;;;17.60;95.90;;;;;;10484190;28;20182;-36
2023/10/04 02:31:37;;;;;;;7.22;2.20;;;17.10;97.40;;;;;;10474185;28;20128;-27
2023/10/04 02:36:39;;;;;;;5.97;2.00;;;17.20;99.70;;;;;;10460255;28;20090;-35
2023/10/04 02:41:43;;;;;;;4.30;1.60;;;18.00;97.90;;;;;;10473028;28;20041;-36
2023/10/04 02:46:47;;;;;;;11.10;2.15;;;17.80;99.60;;;;;;10483459;28;20462;-38
2023/10/04 02:51:49;;;;;;;7.07;1.90;;;18.00;94.30;;;;;;10463350;28;20045;-38
2023/10/04 02:56:52;;;;;;;7.18;2.05;;;18.20;96.40;;;;;;10469631;28;20087;-34
2023/10/04 03:15:30;;;;;;;4.70;2.10;;;17.30;99.20;;;;;;10520822;27;20667;-37
2023/10/04 03:20:32;;;;;;;16.45;2.60;;;17.80;99.60;;;;;;10491726;28;20140;-33
2023/10/04 03:25:34;;;;;;;14.30;2.40;;;18.10;91.30;;;;;;10483884;28;20469;-39
2023/10/04 03:30:37;;;;;;;7.80;1.60;;;18.20;93.80;;;;;;10492103;28;20079;-38
2023/10/04 03:35:43;;;;;;;7.25;2.05;;;17.20;98.50;;;;;;10482088;28;20135;-31
2023/10/04 03:40:45;;;;;;;6.93;2.00;;;17.30;98.80;;;;;;10494675;28;20063;-33
2023/10/04 03:45:48;;;;;;;6.47;1.60;;;17.80;95.10;;;;;;10492651;28;20152;-34
2023/10/04 03:50:51;;;;;;;13.65;3.03;;;17.60;98.00;;;;;;10474929;28;20040;-36
2023/10/04 03:55:53;;;;;;;10.48;2.03;;;16.90;97.00;;;;;;10489132;28;20056;-35
2023/10/04 04:00:56;;;;;;;5.00;1.67;;;18.20;94.60;;;;;;10478455;28;20048;-31
2023/10/04 04:05:58;;;;;;;3.80;1.52;;;18.50;96.50;;;;;;10480762;28;20216;-36
2023/10/04 04:11:01;;;;;;;8.48;2.33;;;19.20;91.40;;;;;;10506716;28;20056;-33
2023/10/04 04:16:10;;;;;;;3.95;1.77;;;19.90;90.00;;;;;;10515154;28;20044;-35
2023/10/04 04:21:12;;;;;;;8.13;1.52;;;18.20;94.90;;;;;;10529055;28;20123;-32
2023/10/04 04:26:15;;;;;;;6.50;1.85;;;18.50;93.10;;;;;;10504201;28;20044;-33
2023/10/04 04:31:20;;;;;;;;;;;18.90;93.70;;;;;;10497668;28;20056;-40
2023/10/04 04:36:26;;;;;;;6.32;1.80;;;18.00;96.90;;;;;;10498524;28;19927;-33
2023/10/04 04:41:29;;;;;;;7.13;2.03;;;18.10;97.50;;;;;;10496627;28;20078;-40
2023/10/04 04:46:34;;;;;;;7.43;2.35;;;18.00;97.00;;;;;;10491691;28;20044;-37
2023/10/04 04:51:36;;;;;;;8.25;3.40;;;17.40;96.80;;;;;;10498553;28;20404;-39
2023/10/04 04:56:39;;;;;;;7.90;2.00;;;17.90;96.60;;;;;;10496249;28;20051;-31
2023/10/04 05:01:42;;;;;;;10.88;2.97;;;17.30;99.30;;;;;;10498203;28;20127;-30
2023/10/04 05:06:44;;;;;;;9.80;2.30;;;17.40;97.40;;;;;;10490793;28;20051;-39
2023/10/04 05:11:46;;;;;;;7.63;1.87;;;16.90;98.50;;;;;;10499148;28;20098;-36
2023/10/04 05:16:49;;;;;;;10.30;1.83;;;17.20;98.90;;;;;;10493867;28;20075;-38
2023/10/04 05:21:51;;;;;;;7.72;1.95;;;18.10;96.60;;;;;;10492763;28;20569;-31
2023/10/04 05:26:53;;;;;;;11.00;2.80;;;18.20;96.60;;;;;;10491394;28;20068;-37
2023/10/04 05:31:56;;;;;;;14.70;3.60;;;17.80;97.20;;;;;;10493493;28;20137;-33
2023/10/04 05:36:57;;;;;;;13.68;3.55;;;17.40;96.50;;;;;;10490587;28;20067;-38
2023/10/04 05:41:59;;;;;;;11.03;2.63;;;17.10;99.20;;;;;;10490722;28;20046;-42
2023/10/04 05:47:02;;;;;;;8.77;2.43;;;17.40;99.90;;;;;;10496823;28;20072;-36
2023/10/04 05:52:05;;;;;;;19.45;3.50;;;17.40;99.90;;;;;;10500672;28;20048;-30
2023/10/04 05:57:06;;;;;;;11.55;3.20;;;17.70;97.90;;;;;;10482072;28;20132;-36
2023/10/04 06:02:11;;;;;;;9.40;2.33;;;17.30;99.90;;;;;;10502323;28;20040;-43
2023/10/04 06:07:13;;;;;;;5.05;2.03;;;17.60;98.70;;;;;;10489059;28;20047;-38
2023/10/04 06:12:15;;;;;;;4.90;1.50;;;18.10;97.50;;;;;;10471314;28;20866;-34
2023/10/04 06:17:18;;;;;;;9.13;2.13;;;20.40;90.60;;;;;;10484589;28;20474;-35
2023/10/04 06:22:20;;;;;;;13.55;3.45;;;20.10;85.20;;;;;;10489787;28;20136;-33
2023/10/04 06:27:21;;;;;;;11.47;3.83;;;17.70;96.80;;;;;;10493018;28;20811;-37
2023/10/04 06:32:24;;;;;;;15.30;3.70;;;17.90;96.30;;;;;;10486811;28;20079;-35
2023/10/04 06:37:26;;;;;;;11.60;2.58;;;17.50;97.30;;;;;;10496961;28;20543;-37
2023/10/04 06:42:28;;;;;;;9.80;2.43;;;18.00;96.90;;;;;;10495873;28;20045;-30
2023/10/04 06:47:33;;;;;;;7.50;2.50;;;18.00;97.80;;;;;;10491665;28;20079;-36
2023/10/04 06:52:36;;;;;;;9.65;2.53;;;18.30;97.10;;;;;;10483296;28;20466;-36
2023/10/04 06:57:40;;;;;;;12.38;3.17;;;18.80;94.80;;;;;;10490575;28;20040;-35
2023/10/04 07:02:45;;;;;;;7.18;2.70;;;18.50;94.80;;;;;;10494561;28;20123;-37
2023/10/04 07:07:47;;;;;;;8.95;2.65;;;18.80;94.70;;;;;;10489453;28;20127;-35
2023/10/04 07:12:51;;;;;;;16.58;3.38;;;17.70;98.90;;;;;;10489476;28;20056;-40
2023/10/04 07:17:55;;;;;;;8.07;2.42;;;17.90;97.20;;;;;;10490194;28;20189;-56
2023/10/04 07:22:59;;;;;;;8.80;2.33;;;17.70;96.80;;;;;;10484872;28;20750;-32
2023/10/04 07:28:03;;;;;;;10.85;3.05;;;18.30;96.60;;;;;;10493452;28;20052;-40
2023/10/04 07:33:07;;;;;;;14.18;3.72;;;18.40;94.80;;;;;;10487102;28;20397;-32
2023/10/04 07:38:09;;;;;;;8.65;3.60;;;17.80;97.40;;;;;;10485774;28;20064;-34
2023/10/04 07:43:11;;;;;;;11.90;3.40;;;18.00;97.20;;;;;;10501369;28;20067;-31
2023/10/04 07:48:15;;;;;;;10.80;3.53;;;17.70;97.40;;;;;;10493146;28;20064;-47
2023/10/04 07:53:21;;;;;;;9.18;3.25;;;18.20;95.70;;;;;;10485678;28;20055;-32
2023/10/04 07:58:22;;;;;;;11.68;3.13;;;17.90;97.40;;;;;;10485316;28;20052;-37
2023/10/04 08:03:26;;;;;;;12.10;3.07;;;18.10;97.70;;;;;;10508808;28;20119;-30
2023/10/04 08:08:28;;;;;;;8.30;2.42;;;17.80;97.90;;;;;;10493220;28;20136;-30
2023/10/04 08:13:30;;;;;;;12.52;2.20;;;17.70;98.40;;;;;;10497668;28;20319;-39
2023/10/04 08:18:34;;;;;;;;;;;17.60;99.50;;;;;;10494469;28;20040;-33
2023/10/04 08:23:36;;;;;;;16.08;3.50;;;18.00;97.40;;;;;;10495711;28;19927;-35
2023/10/04 08:28:39;;;;;;;12.60;2.67;;;17.80;98.50;;;;;;10499987;28;20139;-39
2023/10/04 08:33:45;;;;;;;8.23;2.58;;;18.30;96.70;;;;;;10502031;28;20049;-33
2023/10/04 08:38:48;;;;;;;6.85;2.35;;;18.70;94.90;;;;;;10493675;28;20068;-40
2023/10/04 08:43:49;;;;;;;16.40;2.65;;;18.20;95.20;;;;;;10491901;28;20408;-40
2023/10/04 08:48:54;;;;;;;10.07;2.83;;;18.30;94.80;;;;;;10501342;28;20374;-34
2023/10/04 08:54:02;;;;;;;13.02;2.83;;;18.40;95.40;;;;;;10510036;28;20510;-32
2023/10/04 08:59:04;;;;;;;8.30;2.67;;;18.20;96.00;;;;;;10497410;28;20059;-35
2023/10/04 09:04:09;;;;;;;9.38;2.60;;;18.40;95.60;;;;;;10505526;28;20072;-33
2023/10/04 09:09:15;;;;;;;9.45;3.22;;;18.70;93.70;;;;;;10490024;28;20060;-31
2023/10/04 09:14:17;;;;;;;4.50;1.60;;;18.60;94.90;;;;;;10491630;28;20402;-34
2023/10/04 09:19:22;;;;;;;10.88;3.10;;;19.50;92.10;;;;;;10497137;28;20101;-33
2023/10/04 09:24:24;;;;;;;9.20;2.40;;;18.60;93.50;;;;;;10496175;28;20048;-32
2023/10/04 09:29:33;;;;;;;15.88;2.85;;;18.50;94.20;;;;;;10493112;28;20051;-33
2023/10/04 09:34:36;;;;;;;7.53;2.47;;;18.00;95.90;;;;;;10490242;28;20634;-31
2023/10/04 09:39:38;;;;;;;12.75;3.22;;;18.20;96.50;;;;;;10499191;28;20855;-41
2023/10/04 09:44:39;;;;;;;11.23;2.77;;;18.30;95.70;;;;;;10491800;28;20076;-45
2023/10/04 09:49:51;;;;;;;10.40;3.57;;;17.90;97.20;;;;;;10497932;28;20076;-45
2023/10/04 09:54:53;;;;;;;9.17;2.30;;;17.70;97.30;;;;;;10488710;28;20425;-40
2023/10/04 09:59:57;;;;;;;15.95;3.55;;;19.30;94.30;;;;;;10494686;28;20134;-32
2023/10/04 10:05:02;;;;;;;12.32;3.17;;;18.70;94.80;;;;;;10495950;28;20102;-34
2023/10/04 10:10:10;;;;;;;19.35;3.78;;;18.00;96.00;;;;;;10490606;28;20765;-30
2023/10/04 10:15:13;;;;;;;12.52;2.85;;;18.20;95.50;;;;;;10488805;28;20048;-34
2023/10/04 10:20:17;;;;;;;15.18;2.53;;;18.80;94.50;;;;;;10493135;28;20107;-31
2023/10/04 10:25:19;;;;;;;13.43;2.72;;;18.40;97.00;;;;;;10483894;28;20053;-33
2023/10/04 10:30:21;;;;;;;11.60;2.47;;;18.00;98.90;;;;;;10507928;28;20044;-32
2023/10/04 10:35:52;;;;;;;21.42;4.78;;;18.90;94.80;;;;;;10494331;28;20048;-38
2023/10/04 10:40:54;;;;;;;14.18;3.22;;;18.30;95.50;;;;;;10492983;28;20044;-31
2023/10/04 10:45:57;;;;;;;8.93;3.70;;;18.40;94.70;;;;;;10491116;28;20562;-33
2023/10/04 10:51:01;;;;;;;9.57;2.40;;;18.40;94.90;;;;;;10495782;28;20517;-37
2023/10/04 10:56:03;;;;;;;7.90;2.63;;;17.90;96.80;;;;;;10503036;28;20064;-41
2023/10/04 11:01:08;;;;;;;7.20;2.13;;;17.70;97.30;;;;;;10493981;28;20444;-33
2023/10/04 11:06:11;;;;;;;10.90;2.05;;;17.60;99.90;;;;;;10491211;28;20144;-37
2023/10/04 11:11:13;;;;;;;10.45;2.10;;;18.20;99.90;;;;;;10497416;28;20055;-30
2023/10/04 11:16:14;;;;;;;27.05;2.85;;;18.20;99.90;;;;;;10500854;28;20053;-35
2023/10/04 11:21:18;;;;;;;6.33;1.90;;;18.00;99.90;;;;;;10489928;28;20086;-44
2023/10/04 11:26:19;;;;;;;11.70;1.55;;;18.10;99.90;;;;;;10488994;28;20044;-29
2023/10/04 11:31:21;;;;;;;6.90;1.77;;;18.90;99.90;;;;;;10494934;28;20068;-43
2023/10/04 11:36:25;;;;;;;6.83;1.43;;;17.70;99.90;;;;;;10492811;28;20048;-38
2023/10/04 11:41:29;;;;;;;10.73;1.58;;;17.90;99.90;;;;;;10498123;28;20501;-30
2023/10/04 11:46:54;;;;;;;7.03;1.60;;;18.90;97.30;;;;;;10493820;28;20063;-38
2023/10/04 11:52:00;;;;;;;8.45;1.45;;;19.90;94.90;;;;;;10500711;28;20545;-29
2023/10/04 11:57:03;;;;;;;7.03;1.38;;;19.50;95.90;;;;;;10498198;28;20044;-37
2023/10/04 12:02:05;;;;;;;10.35;1.60;;;20.50;92.30;;;;;;10497001;28;20098;-30
2023/10/04 12:07:08;;;;;;;8.93;1.50;;;20.10;93.80;;;;;;10501861;28;20138;-40
2023/10/04 12:12:16;;;;;;;5.57;1.77;;;20.20;92.70;;;;;;10500244;28;20158;-37
2023/10/04 12:17:18;;;;;;;4.00;1.27;;;20.30;89.20;;;;;;10494561;28;20044;-32
2023/10/04 12:22:22;;;;;;;9.63;1.52;;;20.60;89.20;;;;;;10496801;28;20098;-32
2023/10/04 12:27:24;;;;;;;10.05;1.60;;;19.90;91.30;;;;;;10492370;28;20515;-29
2023/10/04 12:32:27;;;;;;;5.07;1.38;;;20.70;85.60;;;;;;10497741;28;20044;-39
2023/10/04 12:37:30;;;;;;;6.38;1.23;;;20.60;88.90;;;;;;10502286;28;20132;-32
2023/10/04 12:42:32;;;;;;;10.75;1.83;;;20.90;83.30;;;;;;10503401;28;20040;-36
2023/10/04 12:47:34;;;;;;;13.90;1.52;;;20.50;85.50;;;;;;10492018;28;20076;-38
2023/10/04 12:52:37;;;;;;;8.27;1.40;;;20.40;82.90;;;;;;10499813;28;20135;-35
2023/10/04 12:57:39;;;;;;;10.13;1.08;;;20.70;86.60;;;;;;10483511;28;20103;-33
2023/10/04 13:02:42;;;;;;;10.20;1.33;;;20.90;81.90;;;;;;10484688;28;20047;-29
2023/10/04 13:07:47;;;;;;;6.30;1.00;;;20.90;74.70;;;;;;10489068;28;20077;-37
2023/10/04 13:12:49;;;;;;;8.20;1.17;;;20.80;81.80;;;;;;10482443;28;20053;-39
2023/10/04 13:17:50;;;;;;;10.23;0.95;;;20.80;80.00;;;;;;10499066;28;20079;-44
2023/10/04 13:22:55;;;;;;;9.93;1.10;;;20.60;78.70;;;;;;10489846;28;20139;-38
2023/10/04 13:27:56;;;;;;;10.77;1.60;;;21.00;77.70;;;;;;10490162;28;20101;-40
2023/10/04 13:32:58;;;;;;;7.47;1.55;;;21.50;78.00;;;;;;10493706;28;20059;-36
2023/10/04 13:38:03;;;;;;;4.95;1.25;;;20.10;80.20;;;;;;10502752;28;20421;-41
2023/10/04 13:43:07;;;;;;;6.88;1.35;;;19.50;83.40;;;;;;10501426;28;20071;-30
2023/10/04 13:48:09;;;;;;;11.25;1.73;;;19.40;82.10;;;;;;10485412;28;20044;-32
2023/10/04 13:53:16;;;;;;;10.95;1.25;;;19.10;91.40;;;;;;10490067;28;20148;-30
2023/10/04 13:58:23;;;;;;;9.90;1.50;;;18.70;88.80;;;;;;10487196;28;20049;-36
2023/10/04 14:03:26;;;;;;;6.47;1.00;;;18.70;88.40;;;;;;10491049;28;20051;-33
2023/10/04 14:08:29;;;;;;;5.72;0.80;;;18.80;92.50;;;;;;10476447;28;20044;-31
2023/10/04 14:13:31;;;;;;;7.13;1.02;;;19.00;84.10;;;;;;10475061;28;20076;-41
2023/10/04 14:18:34;;;;;;;6.57;0.82;;;19.50;88.20;;;;;;10468889;28;20044;-30
2023/10/04 14:23:37;;;;;;;10.48;1.20;;;19.20;85.30;;;;;;10471423;28;20056;-30
2023/10/04 14:28:39;;;;;;;7.63;1.30;;;19.30;87.20;;;;;;10467746;28;20063;-30
2023/10/04 14:33:41;;;;;;;5.60;0.80;;;20.40;82.40;;;;;;10470023;28;20044;-32
2023/10/04 14:38:44;;;;;;;4.15;0.93;;;21.10;77.70;;;;;;10468592;28;20094;-38
2023/10/04 14:43:46;;;;;;;5.63;0.80;;;20.10;84.90;;;;;;10471267;28;20075;-51
2023/10/04 14:48:48;;;;;;;5.88;1.20;;;19.40;88.80;;;;;;10462874;28;20205;-39
2023/10/04 14:53:51;;;;;;;7.90;1.45;;;20.30;79.80;;;;;;10457491;28;20544;-33
2023/10/04 14:58:53;;;;;;;3.85;0.65;;;20.00;79.80;;;;;;10465025;28;20143;-36
2023/10/04 15:03:57;;;;;;;4.68;1.02;;;20.00;82.20;;;;;;10463350;28;20151;-33
2023/10/04 15:09:00;;;;;;;6.20;0.85;;;20.60;77.00;;;;;;10464619;28;20203;-31
2023/10/04 15:14:02;;;;;;;8.15;0.90;;;20.30;80.80;;;;;;10460792;28;20076;-33
2023/10/04 15:19:05;;;;;;;5.28;1.05;;;19.80;83.00;;;;;;10458455;28;20044;-26
2023/10/04 15:24:14;;;;;;;4.97;1.08;;;20.70;77.00;;;;;;10461999;28;20060;-33
2023/10/04 15:29:16;;;;;;;7.90;1.20;;;20.20;78.60;;;;;;10467732;28;20095;-37
2023/10/04 15:34:18;;;;;;;9.80;1.58;;;19.30;81.00;;;;;;10462168;28;20144;-55
2023/10/04 15:39:23;;;;;;;;;;;19.80;85.50;;;;;;10468200;28;20102;-37
2023/10/04 15:44:25;;;;;;;10.55;1.80;;;19.90;85.80;;;;;;10466996;28;20388;-30
2023/10/04 15:49:26;;;;;;;5.70;1.03;;;19.80;86.50;;;;;;10463905;28;20053;-32
2023/10/04 15:54:29;;;;;;;9.07;2.00;;;20.10;85.40;;;;;;10464988;28;20935;-47
2023/10/04 15:59:31;;;;;;;6.80;1.60;;;20.40;86.70;;;;;;10462699;28;20501;-34
2023/10/04 16:04:33;;;;;;;10.95;1.42;;;20.10;87.70;;;;;;10464876;28;20574;-45
2023/10/04 16:09:37;;;;;;;4.55;1.33;;;20.10;91.50;;;;;;10462352;28;20460;-48
2023/10/04 16:14:39;;;;;;;6.40;1.52;;;20.10;78.00;;;;;;10467579;28;20473;-37
2023/10/04 16:19:41;;;;;;;9.20;1.83;;;18.60;90.60;;;;;;10456617;28;20048;-29
2023/10/04 16:24:44;;;;;;;;;;;18.60;89.70;;;;;;10471091;28;21022;-43
2023/10/04 16:29:45;;;;;;;;;;;19.80;87.50;;;;;;10474409;28;20067;-32
2023/10/04 16:34:48;;;;;;;9.13;1.73;;;19.70;91.10;;;;;;10471484;28;19928;-33
2023/10/04 16:39:51;;;;;;;8.77;1.80;;;19.20;92.60;;;;;;10463057;28;20047;-33
2023/10/04 16:44:54;;;;;;;4.95;1.70;;;18.40;92.20;;;;;;10472496;28;20139;-33
2023/10/04 16:49:56;;;;;;;9.70;1.60;;;18.90;89.50;;;;;;10464790;28;20087;-40
2023/10/04 16:54:59;;;;;;;7.00;1.52;;;18.50;92.10;;;;;;10470713;28;20585;-38
2023/10/04 17:00:01;;;;;;;10.43;1.60;;;18.10;96.20;;;;;;10471621;28;20078;-28
2023/10/04 17:05:03;;;;;;;4.73;1.50;;;17.90;91.50;;;;;;10467716;28;20051;-33
2023/10/04 17:10:08;;;;;;;10.02;1.92;;;17.90;92.60;;;;;;10473087;28;20044;-35
2023/10/04 17:15:11;;;;;;;4.47;1.33;;;18.00;96.60;;;;;;10468842;28;20516;-34
2023/10/04 17:20:13;;;;;;;6.22;1.40;;;18.20;92.10;;;;;;10471345;28;20049;-39
2023/10/04 17:25:17;;;;;;;6.05;1.55;;;18.10;97.40;;;;;;10470372;28;20036;-58
2023/10/04 17:30:20;;;;;;;3.70;1.10;;;17.30;97.40;;;;;;10460633;28;20687;-34
2023/10/04 17:35:22;;;;;;;7.57;1.42;;;18.00;96.30;;;;;;10447246;28;20048;-41
2023/10/04 17:40:25;;;;;;;5.57;1.23;;;18.00;92.50;;;;;;10458293;28;20040;-34
2023/10/04 17:45:27;;;;;;;8.23;1.17;;;17.90;94.80;;;;;;10470834;28;20191;-30
2023/10/04 17:50:29;;;;;;;3.28;1.58;;;18.70;93.30;;;;;;10452823;28;20048;-38
2023/10/04 17:55:33;;;;;;;8.60;1.27;;;19.50;92.40;;;;;;10471332;28;20048;-30
2023/10/04 18:00:35;;;;;;;9.60;1.38;;;17.50;94.40;;;;;;10469281;28;20049;-38
2023/10/04 18:05:37;;;;;;;7.20;1.07;;;17.80;94.20;;;;;;10468867;28;20040;-35
2023/10/04 18:10:40;;;;;;;6.00;1.37;;;17.60;99.90;;;;;;10470578;28;20044;-38
2023/10/04 18:15:42;;;;;;;8.20;1.23;;;18.60;93.10;;;;;;10467088;28;20167;-37
2023/10/04 18:20:45;;;;;;;6.03;2.17;;;17.50;97.60;;;;;;10468314;28;20049;-42
2023/10/04 18:25:48;;;;;;;3.25;1.00;;;17.70;97.30;;;;;;10467165;28;20040;-42
2023/10/04 18:30:50;;;;;;;7.70;1.40;;;18.00;99.90;;;;;;10470250;28;20358;-38
2023/10/04 18:35:52;;;;;;;5.65;1.08;;;17.60;99.90;;;;;;10466765;28;20445;-36
2023/10/04 18:40:55;;;;;;;3.70;1.30;;;17.90;97.60;;;;;;10477711;28;20075;-29
2023/10/04 18:45:57;;;;;;;10.07;1.50;;;18.10;95.60;;;;;;10480837;28;20088;-39
2023/10/04 18:50:59;;;;;;;9.23;1.30;;;18.30;96.00;;;;;;10501554;28;20123;-31
2023/10/04 18:56:02;;;;;;;9.18;1.63;;;19.70;93.00;;;;;;10482949;28;20052;-31
2023/10/04 19:01:05;;;;;;;3.28;0.80;;;18.30;98.50;;;;;;10495510;28;20641;-36
2023/10/04 19:06:07;;;;;;;5.63;1.73;;;18.10;99.90;;;;;;10477198;28;20539;-35
2023/10/04 19:11:11;;;;;;;4.15;1.42;;;18.20;96.40;;;;;;10486485;28;20044;-32
2023/10/04 19:16:12;;;;;;;6.38;2.00;;;18.20;98.10;;;;;;10486064;28;20076;-33
2023/10/04 19:21:15;;;;;;;2.80;1.00;;;18.60;98.40;;;;;;10485826;28;20238;-32
2023/10/04 19:26:20;;;;;;;4.97;1.15;;;20.00;94.10;;;;;;10477606;28;20505;-33
2023/10/04 19:31:22;;;;;;;8.07;1.55;;;19.10;96.40;;;;;;10490511;28;20097;-35
2023/10/04 19:36:24;;;;;;;1.40;1.10;;;18.40;96.50;;;;;;10486747;28;20082;-40
2023/10/04 19:41:27;;;;;;;3.42;1.52;;;18.50;98.70;;;;;;10497725;28;20056;-41
2023/10/04 19:46:29;;;;;;;9.57;1.55;;;18.40;96.70;;;;;;10471190;28;20143;-34
2023/10/04 19:51:30;;;;;;;6.83;1.37;;;18.00;93.60;;;;;;10486085;28;20049;-39
2023/10/04 19:56:34;;;;;;;6.20;1.10;;;18.60;93.30;;;;;;10486566;28;20143;-37
2023/10/04 20:01:36;;;;;;;5.43;1.40;;;18.80;90.60;;;;;;10498111;28;20545;-55
2023/10/04 20:06:38;;;;;;;6.60;2.40;;;17.90;96.60;;;;;;10493269;28;20551;-45
2023/10/04 20:11:41;;;;;;;5.03;1.17;;;18.20;92.20;;;;;;10488551;28;20382;-56
2023/10/04 20:16:43;;;;;;;6.47;2.22;;;17.80;94.20;;;;;;10488070;28;20125;-41
2023/10/04 20:21:47;;;;;;;3.58;1.30;;;18.00;93.80;;;;;;10473662;28;20523;-43
2023/10/04 20:26:51;;;;;;;5.13;1.65;;;17.60;93.80;;;;;;10489771;28;20072;-34
2023/10/04 20:31:53;;;;;;;7.75;1.48;;;17.90;90.80;;;;;;10486973;28;20473;-31
2023/10/04 20:36:54;;;;;;;1.92;0.88;;;18.30;91.40;;;;;;10500383;28;20040;-36
2023/10/04 20:41:58;;;;;;;4.20;1.10;;;19.00;92.60;;;;;;10501277;28;20067;-30
2023/10/04 20:46:59;;;;;;;5.80;1.27;;;18.80;94.60;;;;;;10494161;28;20048;-42
2023/10/04 20:52:01;;;;;;;8.33;1.43;;;18.20;93.70;;;;;;10489718;28;20055;-35
2023/10/04 20:57:05;;;;;;;5.47;1.37;;;18.00;92.10;;;;;;10491548;28;20502;-34
2023/10/04 21:02:07;;;;;;;7.70;1.30;;;18.40;91.70;;;;;;10485660;28;20633;-31
2023/10/04 21:07:09;;;;;;;;;;;18.00;90.60;;;;;;10494628;28;20056;-31
2023/10/04 21:12:13;;;;;;;4.53;0.98;;;18.30;94.40;;;;;;10498926;28;19920;-33
2023/10/04 21:17:15;;;;;;;8.32;1.30;;;18.30;91.00;;;;;;10476344;28;20047;-36
2023/10/04 21:22:17;;;;;;;5.63;1.33;;;18.20;91.70;;;;;;10495188;28;20068;-35
2023/10/04 21:27:23;;;;;;;5.13;1.20;;;18.20;95.00;;;;;;10490261;28;20456;-37
2023/10/04 21:32:29;;;;;;;4.55;1.17;;;17.90;91.00;;;;;;10486865;28;20044;-37
2023/10/04 21:37:36;;;;;;;8.90;1.38;;;18.10;92.60;;;;;;10503404;28;20052;-31
2023/10/04 21:42:40;;;;;;;5.82;1.70;;;18.00;92.60;;;;;;10475080;28;20169;-34
2023/10/04 21:47:48;;;;;;;10.98;2.17;;;18.10;91.10;;;;;;10471430;28;20124;-38
2023/10/04 21:52:50;;;;;;;6.05;1.75;;;18.20;90.90;;;;;;10498683;28;20049;-38
2023/10/04 21:57:53;;;;;;;24.87;2.80;;;18.30;89.50;;;;;;10494036;28;20098;-31
2023/10/04 22:02:55;;;;;;;5.35;1.50;;;18.30;88.80;;;;;;10493832;28;20151;-32
2023/10/04 22:07:59;;;;;;;5.13;1.25;;;17.80;95.10;;;;;;10488764;28;20044;-37
2023/10/04 22:13:02;;;;;;;7.90;2.75;;;18.40;93.20;;;;;;10492050;28;20135;-35
2023/10/04 22:18:04;;;;;;;7.15;1.50;;;17.60;97.20;;;;;;10500535;28;20159;-33
2023/10/04 22:23:08;;;;;;;8.30;1.58;;;17.90;97.10;;;;;;10491515;28;20156;-47
2023/10/04 22:28:12;;;;;;;8.85;2.03;;;18.00;97.50;;;;;;10494136;28;20048;-38
2023/10/04 22:33:16;;;;;;;5.55;1.90;;;18.20;97.00;;;;;;10480986;28;20132;-35
2023/10/04 22:38:18;;;;;;;13.50;2.20;;;18.70;95.80;;;;;;10490031;28;20044;-31
2023/10/04 22:43:21;;;;;;;7.25;1.52;;;18.00;96.80;;;;;;10491681;28;20040;-39
2023/10/04 22:48:23;;;;;;;12.27;1.80;;;18.20;96.60;;;;;;10486104;28;20143;-35
2023/10/04 22:53:25;;;;;;;11.00;1.47;;;18.00;96.90;;;;;;10485030;28;20717;-39
2023/10/04 22:58:29;;;;;;;5.57;1.20;;;18.00;96.30;;;;;;10485198;28;20896;-31
2023/10/04 23:03:30;;;;;;;5.00;1.30;;;18.30;95.60;;;;;;10490518;28;20040;-38
2023/10/04 23:08:32;;;;;;;9.97;1.60;;;17.40;97.90;;;;;;10499914;28;20134;-34
2023/10/04 23:13:37;;;;;;;5.30;1.13;;;17.60;97.30;;;;;;10479121;28;20060;-36
2023/10/04 23:18:41;;;;;;;6.07;1.60;;;18.20;95.60;;;;;;10495381;28;21359;-34
2023/10/04 23:23:51;;;;;;;4.05;1.10;;;18.40;93.60;;;;;;10495219;28;20046;-46
2023/10/04 23:28:54;;;;;;;9.68;1.42;;;17.50;98.10;;;;;;10495709;28;20053;-37
2023/10/04 23:33:56;;;;;;;2.90;1.20;;;17.80;97.40;;;;;;10496214;28;20056;-31
2023/10/04 23:39:00;;;;;;;10.98;1.52;;;17.60;97.20;;;;;;10512369;28;20058;-33
2023/10/04 23:44:10;;;;;;;12.00;1.88;;;17.60;97.50;;;;;;10490974;28;20045;-36
2023/10/04 23:49:18;;;;;;;4.72;1.10;;;17.50;97.20;;;;;;10498876;28;20469;-34
2023/10/04 23:54:22;;;;;;;3.88;2.17;;;18.10;96.50;;;;;;10494317;28;20072;-45
2023/10/04 23:59:27;;;;;;;9.68;1.42;;;17.80;96.50;;;;;;10491991;28;20507;-38
